Time;durP1;ratioP1;P1;durP2;ratioP2;P2;SDS_P1;SDS_P2;PMS_P1;PMS_P2;Temp;Humidity;BMP_temperature;BMP_pressure;BME280_temperature;BME280_humidity;BME280_pressure;Samples;Min_cycle;Max_cycle;Signal;HPM_P1;HPM_P2
2021/03/11 00:01:50;;;;;;;;;;;;;;;5.36;57.92;101128.59;4955379;28;19914;-86
2021/03/11 00:04:35;;;;;;;;;;;;;;;5.35;58.72;101129.66;4949185;28;19914;-86
2021/03/11 00:07:20;;;;;;;;;;;;;;;5.45;57.56;101121.56;4958972;28;20389;-84
2021/03/11 00:10:10;;;;;;;;;;;;;;;5.39;57.32;101111.84;4958939;28;19914;-85
2021/03/11 00:12:55;;;;;;;;;;;;;;;5.18;57.99;101123.75;4940028;29;19922;-84
2021/03/11 00:15:42;;;;;;;;;;;;;;;5.12;58.30;101123.75;4943881;28;19915;-85
2021/03/11 00:18:27;;;;;;;;;;;;;;;5.14;58.23;101113.50;4947730;28;19914;-84
2021/03/11 00:21:11;;;;;;;;;;;;;;;5.14;58.35;101116.19;4945514;28;19923;-84
2021/03/11 00:23:55;;;;;;;;;;;;;;;5.29;57.51;101120.75;4922939;29;19915;-84
2021/03/11 00:26:40;;;;;;;;;;;;;;;5.29;57.40;101126.16;4944740;28;19915;-84
2021/03/11 00:29:28;;;;;;;;;;;;;;;5.31;59.14;101123.19;4959493;28;19914;-84
2021/03/11 00:32:13;;;;;;;;;;;;;;;5.31;57.64;101123.19;4953548;29;20341;-85
2021/03/11 00:34:57;;;;;;;;;;;;;;;5.23;57.88;101124.56;4957541;29;19918;-85
2021/03/11 00:37:43;;;;;;;;;;;;;;;5.22;57.59;101122.13;4944843;29;19914;-85
2021/03/11 00:40:28;;;;;;;;;;;;;;;5.28;58.53;101129.16;4944559;29;19914;-84
2021/03/11 00:43:14;;;;;;;;;;;;;;;5.35;57.65;101124.28;4959430;29;19919;-85
2021/03/11 00:45:58;;;;;;;;;;;;;;;5.28;57.56;101123.75;4965466;29;19914;-85
2021/03/11 00:48:43;;;;;;;;;;;;;;;5.25;57.64;101130.47;4948256;29;20378;-84
2021/03/11 00:51:28;;;;;;;;;;;;;;;5.23;57.57;101123.75;4961294;28;20301;-84
2021/03/11 00:54:17;;;;;;;;;;;;;;;5.35;57.15;101126.97;4950223;29;19919;-86
2021/03/11 00:57:02;;;;;;;;;;;;;;;5.26;57.36;101113.22;4945285;29;19914;-84
2021/03/11 00:59:51;;;;;;;;;;;;;;;5.18;57.66;101114.56;4936928;29;19923;-84
2021/03/11 01:02:36;;;;;;;;;;;;;;;5.29;57.50;101112.69;4954053;28;19914;-84
2021/03/11 01:05:23;;;;;;;;;;;;;;;5.34;57.45;101103.78;4935625;29;19918;-84
2021/03/11 01:08:08;;;;;;;;;;;;;;;5.31;57.64;101098.94;4932594;29;19914;-84
2021/03/11 01:10:53;;;;;;;;;;;;;;;5.25;57.91;101108.09;4944664;28;19915;-85
2021/03/11 01:13:39;;;;;;;;;;;;;;;5.32;57.96;101100.56;4926116;29;19919;-84
2021/03/11 01:16:24;;;;;;;;;;;;;;;5.13;58.27;101109.16;4944635;29;19914;-85
2021/03/11 01:19:08;;;;;;;;;;;;;;;5.16;58.24;101103.25;4968123;28;19914;-84
2021/03/11 01:21:53;;;;;;;;;;;;;;;5.06;58.74;101097.88;4955686;28;20356;-84
2021/03/11 01:24:37;;;;;;;;;;;;;;;5.07;58.32;101096.78;4963964;28;19915;-84
2021/03/11 01:27:22;;;;;;;;;;;;;;;5.14;58.75;101094.63;4947822;29;19914;-84
2021/03/11 01:30:08;;;;;;;;;;;;;;;4.98;58.98;101090.28;4945030;29;19915;-84
2021/03/11 01:32:53;;;;;;;;;;;;;;;5.02;59.23;101077.94;4954531;28;19914;-85
2021/03/11 01:35:37;;;;;;;;;;;;;;;5.06;59.28;101078.19;4948564;29;19918;-85
2021/03/11 01:38:22;;;;;;;;;;;;;;;5.06;59.24;101070.91;4960645;28;19914;-82
2021/03/11 01:41:07;;;;;;;;;;;;;;;5.09;58.41;101073.06;4951470;28;19914;-83
2021/03/11 01:43:55;;;;;;;;;;;;;;;5.11;58.54;101073.59;4939534;29;19914;-82
2021/03/11 01:46:39;;;;;;;;;;;;;;;4.98;59.08;101071.44;4945844;29;19914;-83
2021/03/11 01:49:24;;;;;;;;;;;;;;;4.90;59.29;101069.28;4961498;28;19914;-82
2021/03/11 01:52:09;;;;;;;;;;;;;;;5.04;58.74;101067.66;4962580;28;19914;-82
2021/03/11 01:54:53;;;;;;;;;;;;;;;5.17;58.74;101063.63;4926602;29;19919;-82
2021/03/11 01:57:39;;;;;;;;;;;;;;;5.04;59.47;101056.88;4932953;28;20377;-82
2021/03/11 02:00:23;;;;;;;;;;;;;;;5.11;59.46;101053.94;4956488;28;19915;-82
2021/03/11 02:03:08;;;;;;;;;;;;;;;5.20;58.15;101054.19;4943266;28;20305;-82
2021/03/11 02:05:53;;;;;;;;;;;;;;;5.22;58.80;101052.84;4959546;28;19914;-83
2021/03/11 02:08:38;;;;;;;;;;;;;;;5.21;58.62;101056.63;4961741;28;19918;-84
2021/03/11 02:11:25;;;;;;;;;;;;;;;5.37;58.00;101049.31;4949140;28;19914;-84
2021/03/11 02:14:18;;;;;;;;;;;;;;;5.33;57.98;101043.69;4939578;29;19919;-84
2021/03/11 02:17:04;;;;;;;;;;;;;;;5.43;57.94;101042.84;4957185;28;20365;-84
2021/03/11 02:20:18;;;;;;;;;;;;;;;5.45;57.57;101038.78;4961031;28;20362;-83
2021/03/11 02:23:09;;;;;;;;;;;;;;;5.28;58.57;101042.88;4951361;29;20296;-85
2021/03/11 02:26:10;;;;;;;;;;;;;;;5.42;57.80;101042.03;4945047;29;19919;-85
2021/03/11 02:29:01;;;;;;;;;;;;;;;5.35;58.07;101040.69;4930059;29;19915;-85
2021/03/11 02:31:46;;;;;;;;;;;;;;;5.38;58.89;101050.94;4933831;28;19915;-85
2021/03/11 02:34:33;;;;;;;;;;;;;;;5.34;58.41;101039.88;4964129;28;19922;-85
2021/03/11 02:37:29;;;;;;;;;;;;;;;5.40;58.16;101049.56;4952657;28;19914;-85
2021/03/11 02:40:23;;;;;;;;;;;;;;;5.40;57.96;101037.97;4944998;29;19914;-85
2021/03/11 02:43:10;;;;;;;;;;;;;;;5.41;57.92;101034.22;4958237;28;19914;-85
2021/03/11 02:45:55;;;;;;;;;;;;;;;5.39;57.82;101039.88;4963684;28;19914;-85
2021/03/11 02:48:41;;;;;;;;;;;;;;;5.62;57.18;101035.78;4957057;28;19914;-86
2021/03/11 02:51:26;;;;;;;;;;;;;;;5.64;57.31;101030.91;4944378;29;19915;-85
2021/03/11 02:54:11;;;;;;;;;;;;;;;5.64;56.99;101027.44;4950208;28;19919;-84
2021/03/11 02:56:57;;;;;;;;;;;;;;;5.72;57.05;101027.66;4940889;28;19914;-84
2021/03/11 02:59:42;;;;;;;;;;;;;;;5.79;56.92;101030.06;4962858;28;19914;-84
2021/03/11 03:02:28;;;;;;;;;;;;;;;5.69;57.37;101035.50;4958431;28;19915;-84
2021/03/11 03:05:18;;;;;;;;;;;;;;;5.79;56.87;101025.44;4962885;28;19922;-84
2021/03/11 03:08:04;;;;;;;;;;;;;;;5.89;56.83;101025.44;4962759;28;19914;-85
2021/03/11 03:10:51;;;;;;;;;;;;;;;5.79;58.53;101021.97;4962192;28;19918;-85
2021/03/11 03:13:37;;;;;;;;;;;;;;;5.89;56.93;101024.66;4956091;28;19919;-84
2021/03/11 03:16:22;;;;;;;;;;;;;;;5.86;57.22;101034.06;4962770;28;19914;-85
2021/03/11 03:19:10;;;;;;;;;;;;;;;5.83;57.16;101026.53;4962393;28;19918;-84
2021/03/11 03:21:54;;;;;;;;;;;;;;;5.89;57.03;101030.06;4961700;28;19915;-86
2021/03/11 03:24:40;;;;;;;;;;;;;;;5.62;58.45;101037.66;4952166;28;20301;-86
2021/03/11 03:27:24;;;;;;;;;;;;;;;5.53;58.62;101038.25;4944360;29;19915;-85
2021/03/11 03:30:12;;;;;;;;;;;;;;;5.60;59.53;101043.31;4949516;29;19914;-84
2021/03/11 03:32:57;;;;;;;;;;;;;;;5.74;57.91;101038.97;4939760;29;19915;-85
2021/03/11 03:35:42;;;;;;;;;;;;;;;5.26;59.84;101036.94;4928552;29;19923;-85
2021/03/11 03:38:26;;;;;;;;;;;;;;;5.26;60.29;101032.34;4944619;29;20292;-86
2021/03/11 03:41:11;;;;;;;;;;;;;;;5.30;60.03;101038.00;4933923;29;19914;-85
2021/03/11 03:43:56;;;;;;;;;;;;;;;5.04;60.65;101045.28;4945813;29;20389;-85
2021/03/11 03:46:43;;;;;;;;;;;;;;;5.13;60.61;101049.88;4949939;29;19915;-86
2021/03/11 03:49:28;;;;;;;;;;;;;;;5.18;60.58;101054.47;4950592;29;20529;-84
2021/03/11 03:52:13;;;;;;;;;;;;;;;5.18;60.48;101036.38;4946349;29;20204;-85
2021/03/11 03:54:58;;;;;;;;;;;;;;;5.29;59.61;101050.66;4947913;29;19918;-84
2021/03/11 03:57:46;;;;;;;;;;;;;;;5.33;59.44;101043.69;4945462;29;19914;-84
2021/03/11 04:00:31;;;;;;;;;;;;;;;5.54;58.79;101044.41;4947688;29;19914;-85
2021/03/11 04:03:16;;;;;;;;;;;;;;;5.45;58.85;101043.38;4941640;29;19915;-84
2021/03/11 04:06:01;;;;;;;;;;;;;;;5.40;59.39;101038.78;4945428;29;19914;-83
2021/03/11 04:08:46;;;;;;;;;;;;;;;5.37;59.55;101043.94;4945494;29;19914;-83
2021/03/11 04:11:31;;;;;;;;;;;;;;;5.39;59.54;101041.75;4938784;29;19922;-83
2021/03/11 04:14:18;;;;;;;;;;;;;;;5.24;59.69;101049.84;4944361;29;19919;-85
2021/03/11 04:17:02;;;;;;;;;;;;;;;5.12;60.51;101044.78;4939930;29;19914;-83
2021/03/11 04:19:48;;;;;;;;;;;;;;;5.10;60.49;101045.03;4944405;29;19914;-85
2021/03/11 04:22:33;;;;;;;;;;;;;;;5.16;60.64;101051.22;4929179;29;19915;-84
2021/03/11 04:25:17;;;;;;;;;;;;;;;5.30;60.27;101046.09;4921173;29;19915;-83
2021/03/11 04:28:03;;;;;;;;;;;;;;;5.18;60.21;101047.16;4924968;29;19915;-84
2021/03/11 04:30:48;;;;;;;;;;;;;;;5.35;59.28;101041.50;4924948;29;19915;-83
2021/03/11 04:33:33;;;;;;;;;;;;;;;5.43;60.45;101032.88;4919277;29;19915;-83
2021/03/11 04:36:18;;;;;;;;;;;;;;;5.51;59.39;101035.00;4919201;29;19915;-83
2021/03/11 04:39:03;;;;;;;;;;;;;;;5.46;59.52;101034.19;4924695;29;19915;-83
2021/03/11 04:41:49;;;;;;;;;;;;;;;5.54;59.04;101033.63;4923869;29;19915;-83
2021/03/11 04:44:35;;;;;;;;;;;;;;;5.01;60.16;101043.16;4925518;29;20289;-84
2021/03/11 04:47:20;;;;;;;;;;;;;;;4.71;63.15;101044.78;4926440;29;19915;-81
2021/03/11 04:50:06;;;;;;;;;;;;;;;4.70;61.64;101058.50;4931478;29;19914;-82
2021/03/11 04:52:51;;;;;;;;;;;;;;;4.49;62.83;101054.16;4943891;29;19915;-83
2021/03/11 04:55:36;;;;;;;;;;;;;;;4.86;62.73;101057.44;4931398;29;19918;-81
2021/03/11 04:58:21;;;;;;;;;;;;;;;4.78;62.02;101071.41;4943843;29;19914;-82
2021/03/11 05:01:11;;;;;;;;;;;;;;;4.79;62.97;101064.97;4941541;29;19914;-82
2021/03/11 05:03:57;;;;;;;;;;;;;;;4.97;61.72;101059.06;4940030;29;19915;-81
2021/03/11 05:06:42;;;;;;;;;;;;;;;4.84;61.38;101062.28;4946637;29;20297;-82
2021/03/11 05:09:27;;;;;;;;;;;;;;;4.73;61.52;101060.63;4945805;29;19914;-82
2021/03/11 05:12:13;;;;;;;;;;;;;;;4.73;61.61;101064.16;4958159;28;19918;-82
2021/03/11 05:15:01;;;;;;;;;;;;;;;4.81;61.69;101057.44;4941925;29;19918;-81
2021/03/11 05:17:49;;;;;;;;;;;;;;;5.00;60.49;101050.44;4940166;29;19915;-83
2021/03/11 05:20:34;;;;;;;;;;;;;;;4.96;61.13;101048.53;4941335;28;19915;-82
2021/03/11 05:23:20;;;;;;;;;;;;;;;4.95;61.23;101053.13;4941923;29;20373;-81
2021/03/11 05:26:05;;;;;;;;;;;;;;;4.85;61.33;101044.22;4945201;29;19915;-82
2021/03/11 05:28:50;;;;;;;;;;;;;;;5.01;60.91;101046.66;4943882;29;19914;-82
2021/03/11 05:31:36;;;;;;;;;;;;;;;5.02;60.68;101048.28;4947419;28;19915;-82
2021/03/11 05:34:21;;;;;;;;;;;;;;;5.03;60.51;101054.44;4945138;29;20388;-82
2021/03/11 05:37:06;;;;;;;;;;;;;;;5.06;60.10;101053.94;4943564;29;19915;-82
2021/03/11 05:39:51;;;;;;;;;;;;;;;4.99;60.56;101054.19;4941304;29;20119;-81
2021/03/11 05:42:37;;;;;;;;;;;;;;;5.01;60.41;101062.81;4934692;29;19914;-82
2021/03/11 05:45:21;;;;;;;;;;;;;;;5.29;59.50;101063.34;4964583;28;19914;-83
2021/03/11 05:48:06;;;;;;;;;;;;;;;5.13;59.75;101055.25;4955344;28;19914;-81
2021/03/11 05:50:52;;;;;;;;;;;;;;;5.16;59.56;101052.03;4939771;29;19919;-83
2021/03/11 05:53:38;;;;;;;;;;;;;;;5.22;59.63;101052.03;4911251;29;19915;-83
2021/03/11 05:56:24;;;;;;;;;;;;;;;5.33;59.35;101056.34;4925273;29;19918;-83
2021/03/11 05:59:09;;;;;;;;;;;;;;;5.46;58.65;101061.97;4921637;29;19915;-83
2021/03/11 06:01:54;;;;;;;;;;;;;;;5.47;59.10;101062.78;4924482;29;19923;-84
2021/03/11 06:04:40;;;;;;;;;;;;;;;5.66;59.42;101060.31;4925825;29;19910;-83
2021/03/11 06:07:25;;;;;;;;;;;;;;;5.66;59.01;101060.31;4925374;29;19915;-83
2021/03/11 06:10:10;;;;;;;;;;;;;;;5.85;59.82;101059.44;4922293;29;19918;-81
2021/03/11 06:12:55;;;;;;;;;;;;;;;5.94;58.13;101057.03;4950503;29;19915;-80
2021/03/11 06:15:41;;;;;;;;;;;;;;;5.89;58.31;101060.53;4950513;29;19927;-83
2021/03/11 06:18:26;;;;;;;;;;;;;;;6.10;58.03;101057.75;4946223;29;19915;-83
2021/03/11 06:21:10;;;;;;;;;;;;;;;6.25;57.13;101063.06;4947827;29;19918;-82
2021/03/11 06:23:55;;;;;;;;;;;;;;;6.18;57.66;101066.09;4945339;29;19923;-82
2021/03/11 06:26:40;;;;;;;;;;;;;;;6.31;57.88;101072.78;4947717;29;19915;-82
2021/03/11 06:29:35;;;;;;;;;;;;;;;6.11;58.58;101080.97;4950065;29;19915;-83
2021/03/11 06:32:20;;;;;;;;;;;;;;;6.06;58.85;101081.00;4948108;29;19915;-83
2021/03/11 06:35:17;;;;;;;;;;;;;;;6.33;57.81;101084.13;4945633;29;19919;-82
2021/03/11 06:38:02;;;;;;;;;;;;;;;6.48;57.35;101086.75;4948453;29;19919;-82
2021/03/11 06:40:53;;;;;;;;;;;;;;;6.61;56.85;101086.09;4949365;29;19915;-84
2021/03/11 06:43:51;;;;;;;;;;;;;;;6.58;57.40;101094.78;4945476;29;19915;-84
2021/03/11 06:46:36;;;;;;;;;;;;;;;6.69;57.17;101104.44;4950641;29;20285;-84
2021/03/11 06:49:21;;;;;;;;;;;;;;;6.76;56.55;101098.72;4950283;29;20377;-82
2021/03/11 06:52:09;;;;;;;;;;;;;;;6.85;55.96;101103.28;4948569;29;19915;-83
2021/03/11 06:54:55;;;;;;;;;;;;;;;7.06;55.66;101105.84;4945891;29;19927;-83
2021/03/11 06:57:40;;;;;;;;;;;;;;;6.94;56.26;101113.47;4943312;29;19915;-84
2021/03/11 07:00:25;;;;;;;;;;;;;;;7.07;55.75;101118.25;4948075;29;19914;-84
2021/03/11 07:03:09;;;;;;;;;;;;;;;7.36;55.50;101112.88;4945517;29;20377;-81
2021/03/11 07:05:54;;;;;;;;;;;;;;;7.19;56.25;101108.69;4943718;29;19914;-83
2021/03/11 07:08:48;;;;;;;;;;;;;;;6.87;58.24;101111.91;4946102;29;19918;-83
2021/03/11 07:11:33;;;;;;;;;;;;;;;6.74;57.89;101122.53;4944536;29;19919;-82
2021/03/11 07:14:25;;;;;;;;;;;;;;;6.89;58.32;101114.31;4946585;29;19918;-82
2021/03/11 07:17:20;;;;;;;;;;;;;;;6.78;59.11;101115.47;4945687;29;19915;-82
2021/03/11 07:20:06;;;;;;;;;;;;;;;6.77;58.95;101111.97;4944825;29;19914;-81
2021/03/11 07:23:01;;;;;;;;;;;;;;;6.69;59.79;101120.66;4939141;29;19915;-79
2021/03/11 07:25:47;;;;;;;;;;;;;;;6.90;59.80;101117.84;4943502;29;19914;-81
2021/03/11 07:28:31;;;;;;;;;;;;;;;6.75;59.58;101124.16;4941437;29;19914;-81
2021/03/11 07:31:26;;;;;;;;;;;;;;;6.98;60.04;101122.63;4938936;29;19923;-80
2021/03/11 07:34:11;;;;;;;;;;;;;;;7.17;59.45;101128.97;4944529;28;20370;-81
2021/03/11 07:36:58;;;;;;;;;;;;;;;7.20;59.50;101133.84;4940565;29;19915;-81
2021/03/11 07:39:44;;;;;;;;;;;;;;;7.34;57.64;101131.28;4940767;29;19918;-80
2021/03/11 07:42:29;;;;;;;;;;;;;;;7.49;57.50;101137.38;4942235;29;19915;-81
2021/03/11 07:45:15;;;;;;;;;;;;;;;7.76;57.26;101142.28;4943281;28;19914;-80
2021/03/11 07:48:04;;;;;;;;;;;;;;;8.07;55.47;101140.06;4932743;29;19914;-81
2021/03/11 07:50:49;;;;;;;;;;;;;;;8.04;56.23;101146.03;4944919;28;19915;-81
2021/03/11 07:53:36;;;;;;;;;;;;;;;7.97;57.32;101149.09;4931632;29;19915;-81
2021/03/11 07:56:21;;;;;;;;;;;;;;;7.86;57.32;101146.78;4936365;29;19919;-81
2021/03/11 07:59:05;;;;;;;;;;;;;;;7.72;58.78;101150.16;4940509;29;19914;-81
2021/03/11 08:01:53;;;;;;;;;;;;;;;7.80;58.60;101159.56;4941420;29;19914;-81
2021/03/11 08:04:42;;;;;;;;;;;;;;;7.66;59.54;101159.44;4936403;29;19915;-80
2021/03/11 08:07:27;;;;;;;;;;;;;;;7.75;59.27;101159.59;4935805;29;19914;-81
2021/03/11 08:10:20;;;;;;;;;;;;;;;7.83;58.27;101158.97;4938233;29;20120;-81
2021/03/11 08:13:26;;;;;;;;;;;;;;;7.84;58.19;101157.88;4935302;29;19918;-81
2021/03/11 08:16:13;;;;;;;;;;;;;;;8.04;57.65;101157.69;4933944;29;19919;-80
2021/03/11 08:18:58;;;;;;;;;;;;;;;8.07;57.20;101151.72;4936715;29;20370;-79
2021/03/11 08:21:43;;;;;;;;;;;;;;;8.33;56.34;101152.22;4925957;29;19918;-78
2021/03/11 08:24:47;;;;;;;;;;;;;;;8.35;55.47;101158.19;4938934;29;19918;-78
2021/03/11 08:27:31;;;;;;;;;;;;;;;8.66;54.78;101166.72;4936335;29;20370;-80
2021/03/11 08:30:38;;;;;;;;;;;;;;;8.62;55.65;101173.03;4940505;29;19914;-87
2021/03/11 08:33:25;;;;;;;;;;;;;;;8.90;54.81;101180.22;4937702;29;19915;-86
2021/03/11 08:36:23;;;;;;;;;;;;;;;8.88;53.67;101171.59;4942770;29;19922;-86
2021/03/11 08:39:28;;;;;;;;;;;;;;;9.18;52.54;101179.28;4942564;29;20362;-87
2021/03/11 08:42:46;;;;;;;;;;;;;;;9.10;52.00;101174.50;4940571;29;19919;-86
2021/03/11 08:45:35;;;;;;;;;;;;;;;9.13;53.26;101179.38;4942478;29;19914;-87
2021/03/11 08:48:23;;;;;;;;;;;;;;;9.45;52.81;101175.88;4927903;29;19915;-87
2021/03/11 08:51:19;;;;;;;;;;;;;;;9.52;52.98;101186.34;4942411;29;19915;-87
2021/03/11 08:54:25;;;;;;;;;;;;;;;9.94;50.13;101188.91;4942268;29;19919;-85
2021/03/11 08:57:46;;;;;;;;;;;;;;;10.00;50.71;101197.78;4941932;29;19914;-89
2021/03/11 09:01:14;;;;;;;;;;;;;;;10.26;49.72;101182.59;4948611;29;20293;-88
2021/03/11 09:04:10;;;;;;;;;;;;;;;10.02;49.70;101190.91;4921600;29;20370;-87
2021/03/11 09:07:10;;;;;;;;;;;;;;;9.89;50.01;101194.44;4941275;29;19915;-88
2021/03/11 09:10:12;;;;;;;;;;;;;;;10.00;50.56;101195.84;4948060;29;19915;-89
2021/03/11 09:13:16;;;;;;;;;;;;;;;9.99;50.47;101190.72;4943531;29;19915;-90
2021/03/11 09:16:32;;;;;;;;;;;;;;;9.96;52.06;101186.66;4943971;29;19919;-87
2021/03/11 09:19:25;;;;;;;;;;;;;;;10.19;48.90;101185.75;4947631;29;19914;-88
2021/03/11 09:22:25;;;;;;;;;;;;;;;10.24;49.87;101185.66;4926885;29;19914;-87
2021/03/11 09:25:23;;;;;;;;;;;;;;;10.32;50.37;101184.13;4941295;29;19914;-86
2021/03/11 09:28:09;;;;;;;;;;;;;;;10.54;51.64;101186.94;4950050;29;19914;-86
2021/03/11 09:30:54;;;;;;;;;;;;;;;11.45;47.61;101189.53;4949110;29;20389;-86
2021/03/11 09:33:39;;;;;;;;;;;;;;;11.04;47.52;101182.34;4949059;29;19923;-86
2021/03/11 09:36:24;;;;;;;;;;;;;;;10.87;48.09;101187.59;4956462;29;19922;-86
2021/03/11 09:39:09;;;;;;;;;;;;;;;10.63;48.50;101189.75;4953811;29;20378;-86
2021/03/11 09:41:54;;;;;;;;;;;;;;;10.87;47.38;101178.66;4950415;29;20394;-84
2021/03/11 09:44:47;;;;;;;;;;;;;;;11.14;45.61;101179.38;4952822;29;20285;-86
2021/03/11 09:47:31;;;;;;;;;;;;;;;11.39;44.05;101179.88;4944013;29;19915;-86
2021/03/11 09:50:16;;;;;;;;;;;;;;;13.29;43.25;101190.44;4942036;29;19914;-83
2021/03/11 09:53:01;;;;;;;;;;;;;;;13.48;40.68;101201.03;4940142;29;20305;-85
2021/03/11 09:55:46;;;;;;;;;;;;;;;12.73;39.69;101186.69;4945918;29;19918;-85
2021/03/11 09:58:31;;;;;;;;;;;;;;;13.45;39.84;101186.13;4946680;29;19915;-85
2021/03/11 10:01:45;;;;;;;;;;;;;;;12.00;41.17;101179.19;4946366;29;19914;-83
2021/03/11 10:04:30;;;;;;;;;;;;;;;13.00;39.39;101176.59;4935292;29;19915;-84
2021/03/11 10:07:15;;;;;;;;;;;;;;;13.01;38.89;101180.91;4941556;29;20386;-81
2021/03/11 10:10:21;;;;;;;;;;;;;;;12.18;41.16;101161.81;4945649;28;19922;-82
2021/03/11 10:13:05;;;;;;;;;;;;;;;12.18;41.06;101167.25;4923605;29;19923;-82
2021/03/11 10:15:52;;;;;;;;;;;;;;;13.05;39.27;101163.59;4923496;29;19919;-80
2021/03/11 10:18:57;;;;;;;;;;;;;;;12.62;39.88;101160.81;4925648;29;19915;-81
2021/03/11 10:22:02;;;;;;;;;;;;;;;12.59;39.35;101161.44;4923258;29;19915;-81
2021/03/11 10:24:50;;;;;;;;;;;;;;;12.12;41.34;101151.34;4925483;29;19915;-81
2021/03/11 10:27:35;;;;;;;;;;;;;;;11.65;42.30;101145.47;4923969;29;19915;-81
2021/03/11 10:30:23;;;;;;;;;;;;;;;12.04;41.87;101150.16;4920855;29;19915;-80
2021/03/11 10:33:08;;;;;;;;;;;;;;;13.27;39.53;101149.00;4922006;29;20305;-81
2021/03/11 10:35:53;;;;;;;;;;;;;;;13.26;39.19;101147.38;4922150;29;19919;-81
2021/03/11 10:38:37;;;;;;;;;;;;;;;12.84;39.22;101149.78;4919915;29;19915;-81
2021/03/11 10:41:22;;;;;;;;;;;;;;;13.07;38.57;101158.59;4923281;29;19915;-81
2021/03/11 10:44:10;;;;;;;;;;;;;;;12.89;39.08;101165.19;4921612;29;19915;-81
2021/03/11 10:47:10;;;;;;;;;;;;;;;12.02;41.25;101149.69;4929191;29;19922;-85
2021/03/11 10:49:55;;;;;;;;;;;;;;;12.02;41.10;101154.34;4946565;29;19918;-86
2021/03/11 10:52:46;;;;;;;;;;;;;;;12.72;39.77;101146.84;4941461;29;19915;-86
2021/03/11 10:55:37;;;;;;;;;;;;;;;12.97;39.16;101144.47;4938178;29;19918;-86
2021/03/11 10:58:32;;;;;;;;;;;;;;;12.71;39.76;101137.06;4922113;29;20374;-85
2021/03/11 11:01:28;;;;;;;;;;;;;;;13.34;38.42;101148.50;4919731;29;20370;-82
2021/03/11 11:04:13;;;;;;;;;;;;;;;13.60;37.89;101154.75;4925399;29;20378;-84
2021/03/11 11:07:03;;;;;;;;;;;;;;;13.16;38.53;101153.97;4921098;29;19915;-83
2021/03/11 11:09:50;;;;;;;;;;;;;;;13.49;38.27;101153.47;4919258;29;19915;-83
2021/03/11 11:12:35;;;;;;;;;;;;;;;13.61;37.74;101148.16;4921917;29;19915;-82
2021/03/11 11:15:20;;;;;;;;;;;;;;;13.97;37.05;101144.97;4922573;29;19919;-83
2021/03/11 11:18:05;;;;;;;;;;;;;;;12.77;38.96;101146.69;4931822;29;19914;-83
2021/03/11 11:20:50;;;;;;;;;;;;;;;13.13;38.34;101137.44;4963240;28;19914;-83
2021/03/11 11:23:35;;;;;;;;;;;;;;;13.14;38.47;101133.59;4956630;28;19915;-82
2021/03/11 11:26:20;;;;;;;;;;;;;;;13.31;37.91;101141.75;4957281;28;19915;-82
2021/03/11 11:29:07;;;;;;;;;;;;;;;12.65;39.31;101119.22;4960725;28;19914;-82
2021/03/11 11:31:54;;;;;;;;;;;;;;;12.69;40.08;101117.50;4958331;28;19918;-83
2021/03/11 11:34:39;;;;;;;;;;;;;;;12.47;40.73;101112.16;4956907;28;19914;-82
2021/03/11 11:37:23;;;;;;;;;;;;;;;12.26;40.70;101114.66;4960612;28;19914;-82
2021/03/11 11:40:11;;;;;;;;;;;;;;;13.28;39.03;101120.56;4959049;28;19933;-81
2021/03/11 11:42:55;;;;;;;;;;;;;;;12.81;39.58;101114.91;4956321;28;19915;-82
2021/03/11 11:45:40;;;;;;;;;;;;;;;12.94;39.50;101104.19;4960942;28;19914;-84
2021/03/11 11:48:25;;;;;;;;;;;;;;;12.52;39.78;101098.34;4965017;28;19914;-84
2021/03/11 11:51:12;;;;;;;;;;;;;;;12.46;40.02;101096.09;4961915;28;19914;-84
2021/03/11 11:53:59;;;;;;;;;;;;;;;12.52;39.59;101087.44;4958874;28;19914;-83
2021/03/11 11:56:44;;;;;;;;;;;;;;;12.37;39.82;101072.34;4963206;28;19922;-84
2021/03/11 11:59:30;;;;;;;;;;;;;;;12.42;39.54;101060.47;4946834;28;19923;-83
2021/03/11 12:02:16;;;;;;;;;;;;;;;13.12;38.45;101054.72;4955405;28;19918;-85
2021/03/11 12:05:02;;;;;;;;;;;;;;;13.15;37.62;101045.09;4965613;28;20362;-84
2021/03/11 12:07:47;;;;;;;;;;;;;;;13.31;36.98;101042.66;4966301;28;19915;-83
2021/03/11 12:10:32;;;;;;;;;;;;;;;14.14;35.53;101027.31;4960277;28;19914;-84
2021/03/11 12:13:17;;;;;;;;;;;;;;;14.08;35.39;101028.63;4961073;28;20297;-84
2021/03/11 12:16:02;;;;;;;;;;;;;;;14.23;34.98;101021.78;4940574;29;19926;-84
2021/03/11 12:18:46;;;;;;;;;;;;;;;14.71;34.06;101026.78;4923841;29;19915;-83
2021/03/11 12:21:31;;;;;;;;;;;;;;;14.83;33.75;101018.63;4944357;29;20401;-83
2021/03/11 12:24:16;;;;;;;;;;;;;;;14.40;34.54;101013.50;4946492;29;19915;-85
2021/03/11 12:27:00;;;;;;;;;;;;;;;14.06;34.67;101014.50;4945922;29;19915;-84
2021/03/11 12:29:45;;;;;;;;;;;;;;;14.32;34.64;101000.66;4943646;29;19914;-84
2021/03/11 12:32:30;;;;;;;;;;;;;;;13.52;36.04;100999.81;4941290;29;19915;-84
2021/03/11 12:35:15;;;;;;;;;;;;;;;13.34;36.20;100996.34;4939621;29;19918;-84
2021/03/11 12:37:59;;;;;;;;;;;;;;;13.32;36.71;100984.13;4944596;29;19914;-84
2021/03/11 12:40:44;;;;;;;;;;;;;;;14.44;34.96;100992.53;4944451;29;19915;-84
2021/03/11 12:43:29;;;;;;;;;;;;;;;14.12;34.73;100989.34;4939599;29;19914;-84
2021/03/11 12:46:16;;;;;;;;;;;;;;;15.00;33.98;100999.28;4930152;29;19918;-84
2021/03/11 12:49:01;;;;;;;;;;;;;;;15.41;32.93;100987.38;4944448;29;19915;-84
2021/03/11 12:51:46;;;;;;;;;;;;;;;14.44;34.74;100985.13;4943314;29;19915;-84
2021/03/11 12:54:30;;;;;;;;;;;;;;;13.85;35.49;100975.38;4944121;29;19923;-84
2021/03/11 12:57:15;;;;;;;;;;;;;;;13.43;36.55;100988.13;4943838;29;19923;-85
2021/03/11 13:00:00;;;;;;;;;;;;;;;12.94;37.79;100992.25;4929349;29;19914;-84
2021/03/11 13:02:45;;;;;;;;;;;;;;;12.76;38.36;100981.34;4940189;29;19915;-85
2021/03/11 13:05:29;;;;;;;;;;;;;;;13.02;37.58;100983.25;4941073;29;19915;-83
2021/03/11 13:08:22;;;;;;;;;;;;;;;13.39;37.45;100976.25;4942776;29;19918;-85
2021/03/11 13:11:09;;;;;;;;;;;;;;;13.14;37.75;100972.50;4947050;29;19914;-85
2021/03/11 13:13:59;;;;;;;;;;;;;;;12.60;38.92;100969.34;4940411;29;19915;-85
2021/03/11 13:16:46;;;;;;;;;;;;;;;12.54;39.16;100970.66;4946529;29;19923;-85
2021/03/11 13:19:31;;;;;;;;;;;;;;;12.78;38.83;100965.47;4946156;29;20305;-85
2021/03/11 13:22:26;;;;;;;;;;;;;;;12.26;39.96;100969.34;4930214;29;19915;-85
2021/03/11 13:25:23;;;;;;;;;;;;;;;12.04;40.50;100961.31;4946389;29;19915;-85
2021/03/11 13:28:14;;;;;;;;;;;;;;;12.13;41.11;100957.47;4948092;29;19918;-81
2021/03/11 13:30:58;;;;;;;;;;;;;;;12.34;40.44;100957.66;4955480;28;20377;-82
2021/03/11 13:33:42;;;;;;;;;;;;;;;12.14;41.91;100958.28;4931690;29;19914;-82
2021/03/11 13:36:29;;;;;;;;;;;;;;;12.35;43.34;100951.06;4953408;28;19918;-81
2021/03/11 13:39:13;;;;;;;;;;;;;;;12.56;41.74;100949.28;4936997;29;19930;-81
2021/03/11 13:41:58;;;;;;;;;;;;;;;12.65;41.04;100950.06;4949510;28;19914;-80
2021/03/11 13:44:43;;;;;;;;;;;;;;;12.72;41.02;100955.84;4952920;28;20369;-81
2021/03/11 13:47:28;;;;;;;;;;;;;;;12.74;40.76;100939.97;4950421;28;19914;-81
2021/03/11 13:50:13;;;;;;;;;;;;;;;12.78;40.69;100932.72;4948397;28;19922;-81
2021/03/11 13:52:58;;;;;;;;;;;;;;;12.82;40.76;100933.69;4936165;29;19914;-80
2021/03/11 13:55:43;;;;;;;;;;;;;;;12.88;40.92;100936.22;4948279;28;19922;-80
2021/03/11 13:58:27;;;;;;;;;;;;;;;12.88;40.92;100934.31;4946869;28;19915;-80
2021/03/11 14:01:14;;;;;;;;;;;;;;;12.91;40.96;100927.38;4952201;28;19918;-79
2021/03/11 14:03:58;;;;;;;;;;;;;;;12.90;40.83;100909.44;4947762;29;19914;-80
2021/03/11 14:06:43;;;;;;;;;;;;;;;12.93;41.09;100900.56;4945738;28;19919;-80
2021/03/11 14:09:28;;;;;;;;;;;;;;;12.94;41.15;100896.72;4950309;28;20278;-80
2021/03/11 14:12:12;;;;;;;;;;;;;;;12.94;41.36;100897.53;4949560;28;19919;-81
2021/03/11 14:14:57;;;;;;;;;;;;;;;12.96;41.48;100895.25;4949113;28;19914;-80
2021/03/11 14:17:42;;;;;;;;;;;;;;;12.99;41.10;100893.81;4947199;28;19918;-80
2021/03/11 14:20:26;;;;;;;;;;;;;;;12.98;41.27;100887.56;4950828;28;19914;-79
2021/03/11 14:23:11;;;;;;;;;;;;;;;13.01;41.27;100889.63;4947838;28;19914;-80
2021/03/11 14:25:56;;;;;;;;;;;;;;;13.02;41.50;100898.59;4948117;29;20297;-80
2021/03/11 14:28:41;;;;;;;;;;;;;;;13.02;41.10;100896.69;4951470;28;19914;-80